• Join FlightAware (Why Join?)
  • Login
  • US Flag 
11:31AM EDT


 

Airport Tracker/Info


-or-


 

Live Flight TrackerFlight Track Log ✈ VH-SCC ✈ 09-May-2013 ✈ YPAD / ADL - YSBK / BWU

Flight Track Log - Related Links

Times and Time Zones

All times are in EDT time to prevent confusion due to time zone crossing. See the VH-SCC flight status page for this flight to view local times or setup timezone preferences in your user account.

Time Position Orientation Groundspeed Altitude Reporting Facility
EDT Latitude Longitude Course Direction KTS MPH feet Rate Location/Type
08:37PM -34.9297 138.5580 81° East 140 161 2,600  Level Aus ATC (RADAR)
08:37PM -34.9258 138.5865 81° East 167 192 4,000 2,820 Climbing Aus ATC (RADAR)
08:38PM -34.9501 138.6361 121° Southeast 205 236 6,600 2,760 Climbing Aus ATC (RADAR)
08:39PM -34.9623 138.6632 119° Southeast 218 251 7,500 2,580 Climbing Aus ATC (RADAR)
08:40PM -34.9990 138.7531 116° Southeast 243 280 10,900 2,820 Climbing Aus ATC (RADAR)
08:40PM -35.0113 138.7829 117° Southeast 240 276 12,200 3,180 Climbing Aus ATC (RADAR)
08:41PM -35.0229 138.8123 116° Southeast 234 269 13,500 2,700 Climbing Aus ATC (RADAR)
08:41PM -35.0403 138.8538 117° Southeast 238 274 14,900 2,220 Climbing Aus ATC (RADAR)
08:42PM -35.0618 138.9174 112° Southeast 249 287 16,700 2,280 Climbing Aus ATC (RADAR)
08:43PM -35.0598 138.9670 87° East 250 288 18,100 2,460 Climbing Aus ATC (RADAR)
08:44PM -35.0541 139.0414 85° East 242 278 20,400 2,400 Climbing Aus ATC (RADAR)
08:44PM -35.0533 139.0619 87° East 243 280 20,900 1,620 Climbing Aus ATC (RADAR)
08:45PM -35.0460 139.1946 86° East 272 313 23,300 1,740 Climbing Aus ATC (RADAR)
08:46PM -35.0437 139.2326 86° East 273 314 24,300 2,460 Climbing Aus ATC (RADAR)
08:46PM -35.0403 139.2830 85° East 259 298 25,800 1,920 Climbing Aus ATC (RADAR)
08:47PM -35.0368 139.3530 87° East 254 292 27,100 1,320 Climbing Aus ATC (RADAR)
08:48PM -35.0340 139.4068 86° East 274 315 27,700 720 Climbing Aus ATC (RADAR)
08:49PM -35.0289 139.4900 86° East 301 346 28,200 960 Climbing Aus ATC (RADAR)
08:49PM -35.0266 139.5336 86° East 309 356 28,900 2,040 Climbing Aus ATC (RADAR)
08:50PM -35.0195 139.6539 86° East 277 319 31,600 1,920 Climbing Aus ATC (RADAR)
08:51PM -35.0174 139.6928 86° East 278 320 32,100 900 Climbing Aus ATC (RADAR)
08:51PM -35.0137 139.7491 85° East 287 330 32,500 780 Climbing Aus ATC (RADAR)
08:52PM -35.0090 139.8337 86° East 303 349 33,200 840 Climbing Aus ATC (RADAR)
08:53PM -35.0049 139.8951 85° East 312 359 33,700 960 Climbing Aus ATC (RADAR)
08:54PM -35.0005 139.9755 86° East 319 367 34,500 1,020 Climbing Aus ATC (RADAR)
08:54PM -34.9971 140.0296 86° East 322 371 35,000 900 Climbing Aus ATC (RADAR)
08:55PM -34.9883 140.1673 86° East 331 381 36,100 840 Climbing Aus ATC (RADAR)
08:56PM -34.9850 140.2242 86° East 338 389 36,500 720 Climbing Aus ATC (RADAR)
08:56PM -34.9803 140.2916 85° East 344 396 36,900 840 Climbing Aus ATC (RADAR)
08:57PM -34.9761 140.3596 86° East 346 398 37,500 1,020 Climbing Aus ATC (RADAR)
08:58PM -34.9775 140.4274 91° East 344 396 38,100 720 Climbing Aus ATC (RADAR)
08:58PM -34.9781 140.5252 90° East 348 400 38,600 600 Climbing Aus ATC (RADAR)
08:59PM -34.9777 140.5755 89° East 355 409 38,900 480 Climbing Aus ATC (RADAR)
08:59PM -34.9793 140.6468 92° East 362 417 39,100 420 Climbing Aus ATC (RADAR)
09:01PM -34.9803 140.7938 90° East 376 433 39,700 540 Climbing Aus ATC (RADAR)
09:01PM -34.9803 140.8475 90° East 381 438 40,000 600 Climbing Aus ATC (RADAR)
09:02PM -34.9802 140.9237 90° East 386 444 40,300 960 Climbing Aus ATC (RADAR)
09:02PM -34.9812 141.0097 91° East 380 437 41,200 780 Climbing Aus ATC (RADAR)
09:03PM -34.9808 141.0835 90° East 375 432 41,300 60 Climbing Aus ATC (RADAR)
09:04PM -34.9816 141.1810 91° East 384 442 41,300  Level Aus ATC (RADAR)
09:04PM -34.9811 141.2468 90° East 388 447 41,300  Level Aus ATC (RADAR)
09:05PM -34.9821 141.3236 91° East 388 447 41,300  Level Aus ATC (RADAR)
09:06PM -34.9823 141.4879 90° East 387 445 41,300  Level Aus ATC (RADAR)
09:06PM -34.9814 141.5318 89° East 388 447 41,300  Level Aus ATC (RADAR)
09:07PM -34.9815 141.6077 90° East 384 442 41,300  Level Aus ATC (RADAR)
09:08PM -34.9808 141.7051 89° East 382 440 41,300  Level Aus ATC (RADAR)
09:08PM -34.9810 141.7804 90° East 382 440 41,300  Level Aus ATC (RADAR)
09:09PM -34.9809 141.8767 90° East 379 436 41,300  Level Aus ATC (RADAR)
09:09PM -34.9807 141.9408 90° East 377 434 41,300  Level Aus ATC (RADAR)
09:10PM -34.9793 142.0800 89° East 379 436 41,300  Level Aus ATC (RADAR)
09:11PM -34.9800 142.1330 91° East 377 434 41,300  Level Aus ATC (RADAR)
09:11PM -34.9793 142.1865 89° East 377 434 41,300  Level Aus ATC (RADAR)
09:12PM -34.9789 142.2711 90° East 375 432 41,300  Level Aus ATC (RADAR)
09:13PM -34.9783 142.3772 90° East 375 432 41,300  Level Aus ATC (RADAR)
09:13PM -34.9774 142.4515 89° East 375 432 41,300  Level Aus ATC (RADAR)
09:14PM -34.9764 142.5470 89° East 375 432 41,300  Level Aus ATC (RADAR)
09:15PM -34.9767 142.5997 90° East 373 429 41,300  Level Aus ATC (RADAR)
09:16PM -34.9741 142.8217 89° East 372 428 41,400  Climbing Aus ATC (RADAR)
09:17PM -34.9737 142.8531 89° East 371 427 41,400  Level Aus ATC (RADAR)
09:17PM -34.9727 142.9265 89° East 370 426 41,400  Level Aus ATC (RADAR)
09:18PM -34.9711 143.0317 89° East 371 427 41,400  Level Aus ATC (RADAR)
09:19PM -34.9707 143.1050 90° East 370 426 41,400  Level Aus ATC (RADAR)
09:19PM -34.9689 143.2099 89° East 370 426 41,400  Level Aus ATC (RADAR)
09:20PM -34.9676 143.2623 88° East 369 425 41,400  Level Aus ATC (RADAR)
09:21PM -34.9556 143.4316 85° East 374 430 41,400  Level Aus ATC (RADAR)
09:21PM -34.9528 143.4740 85° East 375 432 41,400  Level Aus ATC (RADAR)
09:22PM -34.9472 143.5476 85° East 374 430 41,400  Level Aus ATC (RADAR)
09:23PM -34.9407 143.6422 85° East 374 430 41,400  Level Aus ATC (RADAR)
09:23PM -34.9349 143.7159 85° East 372 428 41,400  Level Aus ATC (RADAR)
09:24PM -34.9290 143.8200 86° East 369 425 41,400  Level Aus ATC (RADAR)
09:24PM -34.9267 143.8519 85° East 370 426 41,400  Level Aus ATC (RADAR)
09:25PM -34.9166 143.9892 85° East 373 429 41,400  Level Aus ATC (RADAR)
09:26PM -34.9128 144.0420 85° East 374 430 41,400 120 Level Aus ATC (RADAR)
09:26PM -34.9086 144.0948 84° East 374 430 41,500 60 Climbing Aus ATC (RADAR)
09:27PM -34.9031 144.1795 85° East 374 430 41,500  Level Aus ATC (RADAR)
09:28PM -34.8954 144.2742 84° East 374 430 41,500  Level Aus ATC (RADAR)
09:28PM -34.8894 144.3570 85° East 367 422 41,500  Level Aus ATC (RADAR)
09:29PM -34.8823 144.4488 85° East 362 417 41,500  Level Aus ATC (RADAR)
09:30PM -34.8787 144.4994 85° East 359 413 41,500  Level Aus ATC (RADAR)
09:31PM -34.8637 144.6909 85° East 357 411 41,500  Level Aus ATC (RADAR)
09:32PM -34.8596 144.7412 84° East 357 411 41,500  Level Aus ATC (RADAR)
09:32PM -34.8545 144.8113 85° East 356 410 41,500  Level Aus ATC (RADAR)
09:33PM -34.8462 144.9109 84° East 352 405 41,500  Level Aus ATC (RADAR)
09:34PM -34.8410 144.9799 85° East 349 402 41,500  Level Aus ATC (RADAR)
09:34PM -34.8334 145.0685 84° East 348 400 41,500  Level Aus ATC (RADAR)
09:35PM -34.8295 145.1178 85° East 347 399 41,500  Level Aus ATC (RADAR)
09:36PM -34.8159 145.2841 84° East 346 398 41,500  Level Aus ATC (RADAR)
09:37PM -34.8121 145.3332 85° East 348 400 41,500  Level Aus ATC (RADAR)
09:37PM -34.8060 145.4014 84° East 347 399 41,500  Level Aus ATC (RADAR)
09:38PM -34.7979 145.4999 84° East 347 399 41,500  Level Aus ATC (RADAR)
09:39PM -34.7917 145.5685 84° East 347 399 41,500  Level Aus ATC (RADAR)
09:39PM -34.7845 145.6570 84° East 347 399 41,500  Level Aus ATC (RADAR)
09:40PM -34.7795 145.7065 83° East 349 402 41,500  Level Aus ATC (RADAR)
09:41PM -34.7651 145.8747 84° East 351 404 41,500  Level Aus ATC (RADAR)
09:41PM -34.7620 145.9143 84° East 350 403 41,500  Level Aus ATC (RADAR)
09:42PM -34.7553 145.9837 83° East 351 404 41,500  Level Aus ATC (RADAR)
09:43PM -34.7479 146.0730 84° East 352 405 41,500  Level Aus ATC (RADAR)
09:43PM -34.7414 146.1429 84° East 353 406 41,500  Level Aus ATC (RADAR)
09:44PM -34.7327 146.2431 84° East 355 409 41,500  Level Aus ATC (RADAR)
09:45PM -34.7276 146.2935 83° East 356 410 41,500 -120 Level Aus ATC (RADAR)
09:46PM -34.7157 146.4250 84° East 358 412 41,400 -120 Descending Aus ATC (RADAR)
09:46PM -34.7111 146.4756 84° East 359 413 41,400  Level Aus ATC (RADAR)
09:47PM -34.7058 146.5269 83° East 361 415 41,400  Level Aus ATC (RADAR)
09:47PM -34.6897 146.6073 76° East 364 419 41,400  Level Aus ATC (RADAR)
09:48PM -34.6731 146.6983 78° East 363 418 41,400  Level Aus ATC (RADAR)
09:49PM -34.6604 146.7696 78° East 366 421 41,400  Level Aus ATC (RADAR)
09:49PM -34.6432 146.8605 77° East 365 420 41,400  Level Aus ATC (RADAR)
09:50PM -34.6323 146.9214 78° East 365 420 41,400  Level Aus ATC (RADAR)
09:51PM -34.6069 147.0533 77° East 367 422 41,400  Level Aus ATC (RADAR)
09:51PM -34.5977 147.1042 78° East 367 422 41,400  Level Aus ATC (RADAR)
09:52PM -34.5879 147.1553 77° East 369 425 41,400  Level Aus ATC (RADAR)
09:52PM -34.5740 147.2267 77° East 369 425 41,400  Level Aus ATC (RADAR)
09:53PM -34.5564 147.3190 77° East 370 426 41,400  Level Aus ATC (RADAR)
09:54PM -34.5430 147.3908 77° East 370 426 41,400  Level Aus ATC (RADAR)
09:54PM -34.5228 147.4941 77° East 374 430 41,400  Level Aus ATC (RADAR)
09:55PM -34.5130 147.5455 77° East 372 428 41,400  Level Aus ATC (RADAR)
09:56PM -34.4909 147.6590 77° East 374 430 41,400  Level Aus ATC (RADAR)
09:56PM -34.4810 147.7108 77° East 374 430 41,400  Level Aus ATC (RADAR)
09:57PM -34.4709 147.7623 77° East 372 428 41,400  Level Aus ATC (RADAR)
09:57PM -34.4566 147.8343 76° East 372 428 41,400  Level Aus ATC (RADAR)
09:58PM -34.4365 147.9378 77° East 373 429 41,400  Level Aus ATC (RADAR)
09:59PM -34.4223 148.0098 77° East 372 428 41,400  Level Aus ATC (RADAR)
09:59PM -34.4036 148.1024 76° East 371 427 41,400  Level Aus ATC (RADAR)
10:00PM -34.3934 148.1537 77° East 372 428 41,400  Level Aus ATC (RADAR)
10:00PM -34.3795 148.2255 77° East 370 426 41,400  Level Aus ATC (RADAR)
10:01PM -34.3532 148.3579 76° East 368 423 41,400  Level Aus ATC (RADAR)
10:02PM -34.3426 148.4090 76° East 369 425 41,400  Level Aus ATC (RADAR)
10:03PM -34.3264 148.4901 76° East 367 422 41,400  Level Aus ATC (RADAR)
10:03PM -34.3081 148.5812 76° East 366 421 41,400  Level Aus ATC (RADAR)
10:04PM -34.2935 148.6523 76° East 367 422 41,400  Level Aus ATC (RADAR)
10:05PM -34.2754 148.7429 76° East 365 420 41,400  Level Aus ATC (RADAR)
10:05PM -34.2650 148.7932 76° East 363 418 41,400 -600 Level Aus ATC (RADAR)
10:06PM -34.2345 148.9414 76° East 354 407 40,400 -1,080 Descending Aus ATC (RADAR)
10:07PM -34.2247 148.9902 76° East 349 402 39,600 -2,100 Descending Aus ATC (RADAR)
10:07PM -34.2132 149.0473 76° East 342 394 38,500 -2,520 Descending Aus ATC (RADAR)
10:08PM -34.1991 149.1145 76° East 342 394 36,900 -2,400 Descending Aus ATC (RADAR)
10:09PM -34.1817 149.1992 76° East 334 384 35,300 -2,220 Descending Aus ATC (RADAR)
10:09PM -34.1685 149.2617 76° East 319 367 34,000 -2,280 Descending Aus ATC (RADAR)
10:10PM -34.1505 149.3495 76° East 311 358 32,100 -2,400 Descending Aus ATC (RADAR)
10:10PM -34.1410 149.3927 75° East 308 354 31,000 -1,800 Descending Aus ATC (RADAR)
10:12PM -34.1062 149.5622 76° East 275 316 28,300 -1,620 Descending Aus ATC (RADAR)
10:12PM -34.0979 149.5998 75° East 271 312 27,600 -1,800 Descending Aus ATC (RADAR)
10:13PM -34.0865 149.6523 75° East 268 308 26,500 -1,920 Descending Aus ATC (RADAR)
10:14PM -34.0740 149.7132 76° East 272 313 25,200 -1,800 Descending Aus ATC (RADAR)
10:14PM -34.0609 149.7732 75° East 268 308 24,100 -1,800 Descending Aus ATC (RADAR)
10:15PM -34.0449 149.8490 76° East 271 312 22,600 -1,800 Descending Aus ATC (RADAR)
10:16PM -34.0364 149.8872 75° East 273 314 21,900 -1,740 Descending Aus ATC (RADAR)
10:17PM -34.0121 150.0007 76° East 270 311 19,700 -1,800 Descending Aus ATC (RADAR)
10:17PM -34.0075 150.0236 76° East 270 311 19,200 -1,800 Descending Aus ATC (RADAR)
10:18PM -33.9957 150.0769 75° East 272 313 18,200 -1,740 Descending Aus ATC (RADAR)
10:18PM -33.9813 150.1455 76° East 272 313 16,900 -1,800 Descending Aus ATC (RADAR)
10:19PM -33.9677 150.2060 75° East 270 311 15,700 -1,860 Descending Aus ATC (RADAR)
10:20PM -33.9533 150.2744 76° East 270 311 14,300 -1,800 Descending Aus ATC (RADAR)
10:20PM -33.9452 150.3125 76° East 270 311 13,600 -1,920 Descending Aus ATC (RADAR)
10:22PM -33.9212 150.4351 77° East 272 313 11,000 -2,040 Descending Aus ATC (RADAR)
10:22PM -33.9218 150.4743 91° East 271 312 10,100 -2,040 Descending Aus ATC (RADAR)
10:22PM -33.9243 150.5128 94° East 267 307 9,300 -2,040 Descending Aus ATC (RADAR)
10:23PM -33.9261 150.5648 93° East 256 295 8,100 -2,160 Descending Aus ATC (RADAR)
10:24PM -33.9281 150.6390 92° East 254 292 6,300 -1,860 Descending Aus ATC (RADAR)
10:24PM -33.9297 150.6888 92° East 245 282 5,500 -1,320 Descending Aus ATC (RADAR)
10:25PM -33.9313 150.7497 92° East 232 267 4,600 -1,320 Descending Aus ATC (RADAR)
10:26PM -33.9320 150.7825 92° East 227 261 4,000 -1,620 Descending Aus ATC (RADAR)
10:27PM -33.9386 150.8877 94° East 224 258 1,800 -1,620 Descending Aus ATC (RADAR)
10:27PM -33.9350 150.9062 77° East 219 252 1,500 -360 Descending Aus ATC (RADAR)
10:28PM -33.9239 150.9448 71° East 203 234 1,500  Level Aus ATC (RADAR)